Terminal Aerodrome Forecast
Issued by NWS Charleston, WV

Home | Current Version | Previous Version | Text Only | Print | Product List | Glossary On
Versions: 1 2 3 4 5 6 7 8 9 10 11 12 13 14 15 16 17 18 19 20 21 22 23 24 25 26
613
FTUS41 KRLX 270307 AAA
TAFPKB
TAF AMD
KPKB 270307Z 2703/2724 VRB03KT P6SM FEW140
     FM270800 00000KT P6SM OVC090
     FM271700 18005KT P6SM OVC045
     FM272200 15004KT P6SM BKN080=

USA.gov is the U.S. government's official web portal to all federal, state and local government web resources and services.